메인 페이지
METAR-TAF:

METAR-TAF

공항 :

룰레오, 스웨덴

위도: 65-33N, 경도: 022-08E, 고도: 17m

현재 날씨관측

예보는 21분 전, 13:20시(UTC)에 발표되었습니다.
남남동7kt
온도 24°C
습도 61%
기압 1010 hPa
시정 10km 이상
1500m 미만 상공 구름 및 적란운 없음

METAR: ESPA 251320Z 15007KT CAVOK 24/16 Q1010

시각: 15:41 (13:41 UTC)

예보

예보는 2 시간 11분 전, 11:30시(UTC)에 발표되었습니다.
예보 대상 시간: 25일 12시부터 25일 21시까지 (UTC)
남남동5kt
시정 10km 이상
1500m 미만 상공 구름 및 적란운 없음

TAF: ESPA 251130Z 2512/2521 15005KT CAVOK

4,000개 이상의 공항 관측 자료 및 예보 (METAR 및 TAF 보고).

지도상에서 검색 가능한 기상관측소가 노란 점과 빨간 점으로 표시되어 있습니다.

기상관측소 명을 보려면 표시 위로 마우스를 이동하세요.

날씨 관측과 예보를 보려면 클릭하세요.

지도 변경 : 확대하려면 엑스 표시가 있는 녹색 버튼, 축소하려면 빼기 표시가 있는 녹색 버튼, 다음 페이지의 지도를 보려면 녹색 화살표를 클릭하세요.


METAR-TAF: